createdAt,value
2023-02-12T00:00:52.287Z,27.3
2023-02-12T00:02:08.580Z,28.1
2023-02-12T00:03:24.868Z,29.4
2023-02-12T00:04:41.162Z,28.3
2023-02-12T00:05:57.453Z,27.3
2023-02-12T00:07:13.753Z,27
2023-02-12T00:08:30.040Z,27.3
2023-02-12T00:09:46.339Z,27.5
2023-02-12T00:11:02.631Z,27.2
2023-02-12T00:12:17.941Z,27
2023-02-12T00:13:34.246Z,28.6
2023-02-12T00:14:50.520Z,28.6
2023-02-12T00:16:06.814Z,27
2023-02-12T00:17:23.126Z,27.7
2023-02-12T00:18:39.419Z,27.5
2023-02-12T00:19:55.712Z,26.1
2023-02-12T00:21:11.017Z,26.2
2023-02-12T00:22:26.330Z,27.9
2023-02-12T00:23:41.647Z,27.2
2023-02-12T00:24:56.949Z,26.8
2023-02-12T00:26:13.243Z,26.7
2023-02-12T00:27:29.538Z,26
2023-02-12T00:28:45.830Z,26.6
2023-02-12T00:30:02.125Z,26.7
2023-02-12T00:31:18.414Z,26.4
2023-02-12T00:32:34.708Z,26.8
2023-02-12T00:33:51.004Z,27
2023-02-12T00:35:07.302Z,25.3
2023-02-12T00:36:23.591Z,26.2
2023-02-12T00:37:39.889Z,25.7
2023-02-12T00:38:56.188Z,26.7
2023-02-12T00:40:12.483Z,26.8
2023-02-12T00:41:28.767Z,24.5
2023-02-12T00:42:44.087Z,25.1
2023-02-12T00:44:00.373Z,25.9
2023-02-12T00:45:16.662Z,27.1
2023-02-12T00:46:32.958Z,25.7
2023-02-12T00:47:49.252Z,25.5
2023-02-12T00:49:05.562Z,25.8
2023-02-12T00:50:20.863Z,25.7
2023-02-12T00:51:36.171Z,23.8
2023-02-12T00:52:51.492Z,24.9
2023-02-12T00:54:06.805Z,26.3
2023-02-12T00:55:23.084Z,23.6
2023-02-12T00:56:39.384Z,25.7
2023-02-12T00:57:55.688Z,25
2023-02-12T00:59:11.967Z,25.3
2023-02-12T01:00:28.266Z,24.7
2023-02-12T01:01:44.562Z,23.8
2023-02-12T01:03:00.858Z,25.6
2023-02-12T01:04:17.144Z,25.3
2023-02-12T01:05:33.439Z,24.3
2023-02-12T01:06:49.730Z,25.3
2023-02-12T01:08:06.023Z,24.4
2023-02-12T01:09:22.326Z,23.5
2023-02-12T01:10:37.629Z,25
2023-02-12T01:11:53.923Z,23.6
2023-02-12T01:13:10.216Z,23.7
2023-02-12T01:14:26.519Z,23.8
2023-02-12T01:15:42.805Z,22
2023-02-12T01:16:59.095Z,22.9
2023-02-12T01:18:15.396Z,23.6
2023-02-12T01:19:31.832Z,24.9
2023-02-12T01:20:47.141Z,22.9
2023-02-12T01:22:03.426Z,23.6
2023-02-12T01:23:19.730Z,24
2023-02-12T01:24:36.019Z,22.2
2023-02-12T01:25:52.315Z,23.7
2023-02-12T01:27:08.599Z,23.6
2023-02-12T01:28:24.891Z,23.1
2023-02-12T01:29:41.195Z,24.2
2023-02-12T01:30:57.498Z,23.2
2023-02-12T01:32:13.784Z,23.5
2023-02-12T01:33:30.076Z,24.7
2023-02-12T01:34:46.366Z,23.5
2023-02-12T01:36:02.664Z,23.3
2023-02-12T01:37:17.972Z,23.5
2023-02-12T01:38:34.272Z,24.2
2023-02-12T01:39:50.569Z,23.3
2023-02-12T01:41:06.853Z,22.7
2023-02-12T01:42:23.148Z,22.4
2023-02-12T01:43:39.451Z,23.7
2023-02-12T01:44:55.732Z,23.1
2023-02-12T01:46:11.043Z,23.4
2023-02-12T01:47:26.358Z,21.5
2023-02-12T01:48:41.671Z,21.8
2023-02-12T01:49:56.980Z,23.5
2023-02-12T01:51:13.271Z,22.4
2023-02-12T01:52:29.565Z,21.3
2023-02-12T01:53:45.872Z,21.5
2023-02-12T01:55:02.170Z,22.9
2023-02-12T01:56:18.448Z,20.9
2023-02-12T01:57:34.742Z,21.3
2023-02-12T01:58:50.059Z,20.5
2023-02-12T02:00:06.345Z,20.1
2023-02-12T02:01:22.639Z,22.1
2023-02-12T02:02:38.951Z,21.7
2023-02-12T02:03:55.234Z,21
2023-02-12T02:05:11.522Z,20
2023-02-12T02:06:27.825Z,19.6
2023-02-12T02:07:44.118Z,19.7
2023-02-12T02:09:00.412Z,19.7
2023-02-12T02:10:16.717Z,20.1
2023-02-12T02:11:32.991Z,19.9
2023-02-12T02:12:49.284Z,20.3
2023-02-12T02:14:05.596Z,20.1
2023-02-12T02:15:20.893Z,21.2
2023-02-12T02:16:36.209Z,20.5
2023-02-12T02:17:52.503Z,19.9
2023-02-12T02:19:07.810Z,19.7
2023-02-12T02:20:23.129Z,20.1
2023-02-12T02:21:39.422Z,19.4
2023-02-12T02:22:55.710Z,19.9
2023-02-12T02:24:12.006Z,19.4
2023-02-12T02:25:28.299Z,19.1
2023-02-12T02:26:44.592Z,19.3
2023-02-12T02:28:00.883Z,18.9
2023-02-12T02:29:17.180Z,18.9
2023-02-12T02:30:33.472Z,18.4
2023-02-12T02:31:49.769Z,19.5
2023-02-12T02:33:06.062Z,18.7
2023-02-12T02:34:22.347Z,18.4
2023-02-12T02:35:38.647Z,18.6
2023-02-12T02:36:53.950Z,19.2
2023-02-12T02:38:10.256Z,19.8
2023-02-12T02:39:26.557Z,20.8
2023-02-12T02:40:42.851Z,18
2023-02-12T02:41:59.135Z,19.5
2023-02-12T02:43:15.426Z,18.3
2023-02-12T02:44:31.713Z,19.6
2023-02-12T02:45:47.038Z,19.1
2023-02-12T02:47:02.349Z,17.8
2023-02-12T02:48:17.660Z,18.6
2023-02-12T02:49:32.977Z,18.3
2023-02-12T02:50:49.258Z,19.6
2023-02-12T02:52:05.555Z,18.9
2023-02-12T02:53:21.854Z,18.7
2023-02-12T02:54:38.136Z,18.2
2023-02-12T02:55:54.439Z,18.2
2023-02-12T02:57:10.725Z,18.4
2023-02-12T02:58:27.028Z,18.4
2023-02-12T02:59:43.316Z,18.5
2023-02-12T03:00:59.616Z,18.3
2023-02-12T03:02:15.898Z,19.8
2023-02-12T03:03:32.192Z,19.4
2023-02-12T03:04:48.507Z,17.1
2023-02-12T03:06:03.802Z,20.2
2023-02-12T03:07:20.096Z,18.9
2023-02-12T03:08:36.399Z,17.9
2023-02-12T03:09:52.681Z,18.3
2023-02-12T03:11:08.981Z,17.6
2023-02-12T03:12:25.269Z,18.4
2023-02-12T03:13:41.567Z,18.1
2023-02-12T03:14:56.876Z,17.7
2023-02-12T03:16:12.182Z,17.6
2023-02-12T03:17:27.513Z,17.3
2023-02-12T03:18:42.824Z,17.8
2023-02-12T03:19:59.117Z,17.9
2023-02-12T03:21:15.412Z,18.3
2023-02-12T03:22:31.705Z,17.1
2023-02-12T03:23:47.986Z,18.5
2023-02-12T03:25:04.293Z,18.5
2023-02-12T03:26:20.567Z,17.8
2023-02-12T03:27:36.866Z,17.5
2023-02-12T03:28:53.171Z,18.2
2023-02-12T03:30:09.462Z,17.5
2023-02-12T03:31:25.754Z,17.5
2023-02-12T03:32:42.039Z,18.4
2023-02-12T03:33:58.332Z,18.2
2023-02-12T03:35:13.646Z,17.9
2023-02-12T03:36:29.950Z,18
2023-02-12T03:37:46.228Z,18.6
2023-02-12T03:39:02.535Z,19.3
2023-02-12T03:40:18.829Z,18.2
2023-02-12T03:41:35.115Z,19.1
2023-02-12T03:42:51.413Z,17.8
2023-02-12T03:44:06.721Z,17.6
2023-02-12T03:45:22.034Z,17.9
2023-02-12T03:46:38.321Z,18.3
2023-02-12T03:47:54.624Z,18.6
2023-02-12T03:49:10.925Z,17.9
2023-02-12T03:50:27.213Z,17.2
2023-02-12T03:51:43.508Z,17.6
2023-02-12T03:52:59.797Z,19.1
2023-02-12T03:54:16.097Z,17.5
2023-02-12T03:55:32.381Z,18.1
2023-02-12T03:56:48.679Z,17.2
2023-02-12T03:58:04.961Z,17.2
2023-02-12T03:59:21.264Z,17.8
2023-02-12T04:00:37.552Z,17.5
2023-02-12T04:01:52.874Z,16.9
2023-02-12T04:03:09.155Z,16.6
2023-02-12T04:04:25.466Z,17.2
2023-02-12T04:05:41.762Z,16.3
2023-02-12T04:06:58.048Z,17.3
2023-02-12T04:08:14.326Z,17.5
2023-02-12T04:09:30.629Z,18
2023-02-12T04:10:45.954Z,17.4
2023-02-12T04:12:01.254Z,18.4
2023-02-12T04:13:17.558Z,17.1
2023-02-12T04:14:33.834Z,17.7
2023-02-12T04:15:50.129Z,18.3
2023-02-12T04:17:06.436Z,18.4
2023-02-12T04:18:22.717Z,18.2
2023-02-12T04:19:39.011Z,17.8
2023-02-12T04:20:55.315Z,17.7
2023-02-12T04:22:11.593Z,18.9
2023-02-12T04:23:27.904Z,17.5
2023-02-12T04:24:44.191Z,17.8
2023-02-12T04:26:00.484Z,18.6
2023-02-12T04:27:16.768Z,18.3
2023-02-12T04:28:32.096Z,19.6
2023-02-12T04:29:48.377Z,18
2023-02-12T04:31:04.685Z,18.6
2023-02-12T04:32:20.968Z,18.5
2023-02-12T04:33:37.255Z,18.8
2023-02-12T04:34:53.559Z,18.1
2023-02-12T04:36:09.851Z,18.2
2023-02-12T04:37:25.160Z,18.2
2023-02-12T04:38:40.482Z,19.1
2023-02-12T04:39:56.770Z,18.7
2023-02-12T04:41:13.068Z,18.8
2023-02-12T04:42:29.345Z,19.2
2023-02-12T04:43:45.653Z,19.9
2023-02-12T04:45:01.951Z,19.2
2023-02-12T04:46:18.244Z,18.5
2023-02-12T04:47:34.000Z,20.7
2023-02-12T04:48:50.813Z,20.8
2023-02-12T04:50:07.125Z,20.2
2023-02-12T04:51:23.412Z,20.4
2023-02-12T04:52:39.702Z,20.5
2023-02-12T04:53:55.988Z,20.7
2023-02-12T04:55:11.308Z,19.3
2023-02-12T04:56:27.611Z,19.6
2023-02-12T04:57:43.899Z,20.4
2023-02-12T04:59:00.184Z,21.5
2023-02-12T05:00:16.481Z,20.4
2023-02-12T05:01:32.769Z,22.7
2023-02-12T05:02:49.062Z,21.5
2023-02-12T05:04:04.382Z,20.6
2023-02-12T05:05:19.703Z,21
2023-02-12T05:06:35.988Z,20.8
2023-02-12T05:07:52.295Z,21.9
2023-02-12T05:09:08.574Z,21.5
2023-02-12T05:10:24.867Z,21.7
2023-02-12T05:11:41.160Z,20.4
2023-02-12T05:12:57.473Z,21.5
2023-02-12T05:14:13.741Z,21.2
2023-02-12T05:15:30.049Z,20.1
2023-02-12T05:16:46.346Z,20.5
2023-02-12T05:18:02.636Z,20.8
2023-02-12T05:19:18.926Z,21.2
2023-02-12T05:20:35.209Z,21
2023-02-12T05:21:50.529Z,20.8
2023-02-12T05:23:06.820Z,20.4
2023-02-12T05:24:23.119Z,21.4
2023-02-12T05:25:39.415Z,21.2
2023-02-12T05:26:55.709Z,19.9
2023-02-12T05:28:11.991Z,20.3
2023-02-12T05:29:28.294Z,20.1
2023-02-12T05:30:44.588Z,20.1
2023-02-12T05:32:00.878Z,19.3
2023-02-12T05:33:17.163Z,20.3
2023-02-12T05:34:33.466Z,20.5
2023-02-12T05:35:49.774Z,20.9
2023-02-12T05:37:06.058Z,20.3
2023-02-12T05:38:21.364Z,21.3
2023-02-12T05:39:37.652Z,20.2
2023-02-12T05:40:53.945Z,21.1
2023-02-12T05:42:10.248Z,21.4
2023-02-12T05:43:26.532Z,20.1
2023-02-12T05:44:42.835Z,19.2
2023-02-12T05:45:59.123Z,19.7
2023-02-12T05:47:15.420Z,20.4
2023-02-12T05:48:31.713Z,20.2
2023-02-12T05:49:48.004Z,20.2
2023-02-12T05:51:04.297Z,21
2023-02-12T05:52:20.593Z,20.7
2023-02-12T05:53:36.878Z,20.3
2023-02-12T05:54:52.186Z,21.2
2023-02-12T05:56:08.499Z,20.2
2023-02-12T05:57:24.776Z,21.5
2023-02-12T05:58:41.074Z,20.6
2023-02-12T05:59:57.367Z,19.8
2023-02-12T06:01:13.665Z,19.6
2023-02-12T06:02:29.953Z,20.4
2023-02-12T06:03:46.188Z,20.2
2023-02-12T06:05:02.485Z,20.8
2023-02-12T06:06:18.785Z,20.6
2023-02-12T06:07:35.034Z,19.8
2023-02-12T06:08:51.273Z,21.5
2023-02-12T06:10:07.505Z,19
2023-02-12T06:11:22.825Z,20.5
2023-02-12T06:12:39.110Z,21.4
2023-02-12T06:13:54.435Z,20.4
2023-02-12T06:15:10.731Z,20.7
2023-02-12T06:16:27.019Z,20.2
2023-02-12T06:17:43.319Z,20.8
2023-02-12T06:18:59.609Z,21
2023-02-12T06:20:15.859Z,21.7
2023-02-12T06:21:32.096Z,20.4
2023-02-12T06:22:48.337Z,20.7
2023-02-12T06:24:04.592Z,21.1
2023-02-12T06:25:20.832Z,20.6
2023-02-12T06:26:37.063Z,21.8
2023-02-12T06:27:53.292Z,21.6
2023-02-12T06:29:09.546Z,20.2
2023-02-12T06:30:24.792Z,20.7
2023-02-12T06:31:41.038Z,22
2023-02-12T06:32:57.278Z,21
2023-02-12T06:34:13.523Z,21
2023-02-12T06:35:29.752Z,21.2
2023-02-12T06:36:45.993Z,21.1
2023-02-12T06:38:02.233Z,20.5
2023-02-12T06:39:18.482Z,21.8
2023-02-12T06:40:34.719Z,21.4
2023-02-12T06:41:50.966Z,21.1
2023-02-12T06:43:07.197Z,20.7
2023-02-12T06:44:23.441Z,20.9
2023-02-12T06:45:39.679Z,20.4
2023-02-12T06:46:54.936Z,21.5
2023-02-12T06:48:11.182Z,20.9
2023-02-12T06:49:27.412Z,19.5
2023-02-12T06:50:43.642Z,22.7
2023-02-12T06:51:59.880Z,21.4
2023-02-12T06:53:16.116Z,22.1
2023-02-12T06:54:32.373Z,19.2
2023-02-12T06:55:48.595Z,20.6
2023-02-12T06:57:04.842Z,20.4
2023-02-12T06:58:21.082Z,20.4
2023-02-12T06:59:37.328Z,19.8
2023-02-12T07:00:53.572Z,20.7
2023-02-12T07:02:09.808Z,20.2
2023-02-12T07:03:25.060Z,20.7
2023-02-12T07:04:41.299Z,21.3
2023-02-12T07:05:57.529Z,20.4
2023-02-12T07:07:13.778Z,20
2023-02-12T07:08:30.026Z,19.3
2023-02-12T07:09:46.267Z,20.6
2023-02-12T07:11:02.499Z,20.1
2023-02-12T07:12:18.736Z,19.4
2023-02-12T07:13:34.980Z,19.4
2023-02-12T07:14:51.218Z,20.2
2023-02-12T07:16:07.448Z,20.1
2023-02-12T07:17:23.703Z,19.7
2023-02-12T07:18:39.940Z,19.5
2023-02-12T07:19:55.194Z,18.9
2023-02-12T07:21:11.424Z,18.8
2023-02-12T07:22:27.680Z,19.6
2023-02-12T07:23:43.902Z,19.7
2023-02-12T07:25:00.149Z,19.2
2023-02-12T07:26:16.383Z,18.4
2023-02-12T07:27:32.625Z,17.8
2023-02-12T07:28:48.877Z,19.2
2023-02-12T07:30:05.108Z,19
2023-02-12T07:31:21.345Z,21.2
2023-02-12T07:32:37.583Z,21.6
2023-02-12T07:33:53.835Z,20.7
2023-02-12T07:35:10.069Z,21
2023-02-12T07:36:25.315Z,20.7
2023-02-12T07:37:41.562Z,20.8
2023-02-12T07:38:57.794Z,20.7
2023-02-12T07:40:14.035Z,20.4
2023-02-12T07:41:30.278Z,20.9
2023-02-12T07:42:46.517Z,20.6
2023-02-12T07:44:02.764Z,20.5
2023-02-12T07:45:19.006Z,21.8
2023-02-12T07:46:35.238Z,21.8
2023-02-12T07:47:51.477Z,22.3
2023-02-12T07:49:07.718Z,22.1
2023-02-12T07:50:23.954Z,22.8
2023-02-12T07:51:40.202Z,23.9
2023-02-12T07:52:55.446Z,23.5
2023-02-12T07:54:11.691Z,23.6
2023-02-12T07:55:27.923Z,23.7
2023-02-12T07:56:44.173Z,25.1
2023-02-12T07:58:00.416Z,26.2
2023-02-12T07:59:16.657Z,24.4
2023-02-12T08:00:32.890Z,25.5
2023-02-12T08:01:49.125Z,24.9
2023-02-12T08:03:05.372Z,27.1
2023-02-12T08:04:21.609Z,24.8
2023-02-12T08:05:37.858Z,25.4
2023-02-12T08:06:54.078Z,24.5
2023-02-12T08:08:10.330Z,26.8
2023-02-12T08:09:26.690Z,24.8
2023-02-12T08:10:42.932Z,25.5
2023-02-12T08:11:59.172Z,25.9
2023-02-12T08:13:15.412Z,25.4
2023-02-12T08:14:31.640Z,24.6
2023-02-12T08:15:47.885Z,24.4
2023-02-12T08:17:04.117Z,24.9
2023-02-12T08:18:20.367Z,22.9
2023-02-12T08:19:36.596Z,25
2023-02-12T08:20:52.856Z,24.7
2023-02-12T08:22:09.089Z,24.5
2023-02-12T08:23:25.332Z,24.8
2023-02-12T08:24:41.573Z,25.5
2023-02-12T08:25:56.825Z,25.7
2023-02-12T08:27:13.052Z,24.1
2023-02-12T08:28:29.308Z,23.2
2023-02-12T08:29:45.545Z,23.7
2023-02-12T08:31:01.783Z,22.6
2023-02-12T08:32:18.025Z,25
2023-02-12T08:33:34.249Z,22.9
2023-02-12T08:34:50.488Z,23.3
2023-02-12T08:36:06.737Z,23.6
2023-02-12T08:37:22.967Z,23.6
2023-02-12T08:38:39.205Z,23.1
2023-02-12T08:39:55.451Z,23.8
2023-02-12T08:41:11.709Z,22.1
2023-02-12T08:42:26.945Z,20.8
2023-02-12T08:43:43.186Z,23.9
2023-02-12T08:44:59.434Z,22.2
2023-02-12T08:46:15.675Z,23.5
2023-02-12T08:47:31.904Z,23.9
2023-02-12T08:48:48.156Z,23.4
2023-02-12T08:50:04.392Z,22.1
2023-02-12T08:51:20.634Z,23.5
2023-02-12T08:52:36.858Z,22.8
2023-02-12T08:53:53.100Z,23
2023-02-12T08:55:09.357Z,20.3
2023-02-12T08:56:25.590Z,25.3
2023-02-12T08:57:41.818Z,26.4
2023-02-12T08:58:57.082Z,23.7
2023-02-12T09:00:13.313Z,24.7
2023-02-12T09:01:29.561Z,23.2
2023-02-12T09:02:45.812Z,22.4
2023-02-12T09:04:02.059Z,22.7
2023-02-12T09:05:18.278Z,22.2
2023-02-12T09:06:34.510Z,22.2
2023-02-12T09:07:50.758Z,23.3
2023-02-12T09:09:06.991Z,20.3
2023-02-12T09:10:23.240Z,20.1
2023-02-12T09:11:39.485Z,21.3
2023-02-12T09:12:55.726Z,21.6
2023-02-12T09:14:11.960Z,19.9
2023-02-12T09:15:27.209Z,20.6
2023-02-12T09:16:43.454Z,19.7
2023-02-12T09:17:59.707Z,20.2
2023-02-12T09:19:15.933Z,19.2
2023-02-12T09:20:32.162Z,19.3
2023-02-12T09:21:48.427Z,17.8
2023-02-12T09:23:04.661Z,17.8
2023-02-12T09:24:20.886Z,17.9
2023-02-12T09:25:37.131Z,17.7
2023-02-12T09:26:53.363Z,18.6
2023-02-12T09:28:09.622Z,17.6
2023-02-12T09:29:25.840Z,18.7
2023-02-12T09:30:42.078Z,17.8
2023-02-12T09:31:57.347Z,18.2
2023-02-12T09:33:13.588Z,18.7
2023-02-12T09:34:29.828Z,16.2
2023-02-12T09:35:46.053Z,16.7
2023-02-12T09:37:02.313Z,16.5
2023-02-12T09:38:18.543Z,16.6
2023-02-12T09:39:34.787Z,16.6
2023-02-12T09:40:51.027Z,16.8
2023-02-12T09:42:07.271Z,15.7
2023-02-12T09:43:23.505Z,15.5
2023-02-12T09:44:39.744Z,15.9
2023-02-12T09:45:55.985Z,17.5
2023-02-12T09:47:12.233Z,16.9
2023-02-12T09:48:27.477Z,17.5
2023-02-12T09:49:43.717Z,16.6
2023-02-12T09:50:59.945Z,16
2023-02-12T09:52:16.213Z,15.7
2023-02-12T09:53:32.426Z,14.6
2023-02-12T09:54:48.680Z,15.7
2023-02-12T09:56:04.916Z,17.4
2023-02-12T09:57:21.155Z,15.6
2023-02-12T09:58:37.386Z,14.3
2023-02-12T09:59:53.630Z,14.3
2023-02-12T10:01:09.877Z,14.6
2023-02-12T10:02:26.106Z,14.3
2023-02-12T10:03:42.340Z,14.5
2023-02-12T10:04:57.623Z,14.3
2023-02-12T10:06:13.852Z,14.2
2023-02-12T10:07:30.091Z,14.5
2023-02-12T10:08:46.332Z,13
2023-02-12T10:10:02.571Z,14
2023-02-12T10:11:18.800Z,14.6
2023-02-12T10:12:35.040Z,13.6
2023-02-12T10:13:51.301Z,13.9
2023-02-12T10:15:07.514Z,14.5
2023-02-12T10:16:23.762Z,14.1
2023-02-12T10:17:40.009Z,14.4
2023-02-12T10:18:56.237Z,14.3
2023-02-12T10:20:12.492Z,15.3
2023-02-12T10:21:27.733Z,13.9
2023-02-12T10:22:43.982Z,13.9
2023-02-12T10:24:00.204Z,13.9
2023-02-12T10:25:16.452Z,13.1
2023-02-12T10:26:32.710Z,12.6
2023-02-12T10:27:48.944Z,13.7
2023-02-12T10:29:04.203Z,13
2023-02-12T10:30:20.433Z,12.7
2023-02-12T10:31:36.672Z,13.2
2023-02-12T10:32:52.931Z,12.7
2023-02-12T10:34:09.155Z,11.9
2023-02-12T10:35:25.410Z,12.8
2023-02-12T10:36:41.624Z,11.6
2023-02-12T10:37:57.892Z,11.4
2023-02-12T10:39:14.104Z,11.3
2023-02-12T10:40:30.370Z,10.2
2023-02-12T10:41:46.604Z,10
2023-02-12T10:43:02.844Z,9.8
2023-02-12T10:44:19.062Z,9.3
2023-02-12T10:45:34.341Z,9.6
2023-02-12T10:46:50.566Z,8.8
2023-02-12T10:48:06.819Z,16.8
2023-02-12T10:49:23.038Z,23.6
2023-02-12T10:50:39.283Z,8.8
2023-02-12T10:51:55.528Z,9.6
2023-02-12T10:53:11.757Z,81
2023-02-12T10:54:28.004Z,63.9
2023-02-12T10:55:44.232Z,15.9
2023-02-12T10:57:00.476Z,26.2
2023-02-12T10:58:16.713Z,8.9
2023-02-12T10:59:32.988Z,9.2
2023-02-12T11:00:49.191Z,9.5
2023-02-12T11:02:04.461Z,8.8
2023-02-12T11:03:20.715Z,9.6
2023-02-12T11:04:36.953Z,9.5
2023-02-12T11:05:53.197Z,9.2
2023-02-12T11:07:09.409Z,11
2023-02-12T11:08:25.648Z,9.8
2023-02-12T11:09:41.883Z,10
2023-02-12T11:10:58.157Z,9.7
2023-02-12T11:12:14.397Z,11.2
2023-02-12T11:13:30.636Z,11.1
2023-02-12T11:14:46.860Z,11.5
2023-02-12T11:16:03.081Z,10.2
2023-02-12T11:17:19.328Z,10
2023-02-12T11:18:34.621Z,9.7
2023-02-12T11:19:50.818Z,10
2023-02-12T11:21:07.057Z,8.7
2023-02-12T11:22:23.309Z,9
2023-02-12T11:23:39.549Z,9.7
2023-02-12T11:24:55.776Z,9.6
2023-02-12T11:26:12.018Z,10.6
2023-02-12T11:27:28.256Z,11.7
2023-02-12T11:28:44.533Z,10.9
2023-02-12T11:30:00.734Z,9.4
2023-02-12T11:31:16.986Z,9.3
2023-02-12T11:32:33.212Z,9.2
2023-02-12T11:33:49.498Z,8.2
2023-02-12T11:35:04.713Z,8.4
2023-02-12T11:36:21.000Z,8.5
2023-02-12T11:37:37.184Z,8.5
2023-02-12T11:38:53.439Z,8
2023-02-12T11:40:09.678Z,7.9
2023-02-12T11:41:25.964Z,8.8
2023-02-12T11:42:42.151Z,7.6
2023-02-12T11:43:58.426Z,7.8
2023-02-12T11:45:14.626Z,8.6
2023-02-12T11:46:30.864Z,8
2023-02-12T11:47:47.107Z,7.6
2023-02-12T11:49:03.347Z,7.8
2023-02-12T11:50:19.586Z,8.1
2023-02-12T11:51:34.886Z,7
2023-02-12T11:52:51.086Z,7.5
2023-02-12T11:54:07.320Z,7.5
2023-02-12T11:55:23.568Z,6.9
2023-02-12T11:56:39.849Z,7.9
2023-02-12T11:57:56.100Z,8.1
2023-02-12T11:59:12.337Z,8.1
2023-02-12T12:00:28.533Z,8.3
2023-02-12T12:01:44.823Z,8.5
2023-02-12T12:03:00.991Z,8
2023-02-12T12:04:17.231Z,9
2023-02-12T12:05:33.530Z,8.1
2023-02-12T12:06:49.773Z,7.8
2023-02-12T12:08:05.954Z,8.2
2023-02-12T12:09:21.263Z,8.2
2023-02-12T12:10:37.460Z,7.6
2023-02-12T12:11:53.688Z,8.2
2023-02-12T12:13:09.932Z,8.8
2023-02-12T12:14:26.219Z,8
2023-02-12T12:15:42.419Z,8.5
2023-02-12T12:16:58.713Z,8.8
2023-02-12T12:18:14.892Z,7.6
2023-02-12T12:19:31.191Z,8.2
2023-02-12T12:20:47.425Z,8.5
2023-02-12T12:22:03.674Z,7.5
2023-02-12T12:23:19.855Z,7.7
2023-02-12T12:24:36.135Z,7.8
2023-02-12T12:25:51.348Z,8
2023-02-12T12:27:07.646Z,6.9
2023-02-12T12:28:23.889Z,7.5
2023-02-12T12:29:40.059Z,7.5
2023-02-12T12:30:56.306Z,8.2
2023-02-12T12:32:12.607Z,6.5
2023-02-12T12:33:28.793Z,7.4
2023-02-12T12:34:45.068Z,7
2023-02-12T12:36:01.263Z,7.5
2023-02-12T12:37:17.503Z,7.4
2023-02-12T12:38:33.741Z,7.7
2023-02-12T12:39:49.984Z,7.1
2023-02-12T12:41:06.212Z,7.3
2023-02-12T12:42:21.475Z,6.6
2023-02-12T12:43:37.769Z,7
2023-02-12T12:44:53.954Z,6.4
2023-02-12T12:46:10.199Z,6.8
2023-02-12T12:47:26.426Z,6.7
2023-02-12T12:48:42.680Z,6.3
2023-02-12T12:49:58.917Z,7.3
2023-02-12T12:51:15.152Z,6.1
2023-02-12T12:52:31.440Z,6.4
2023-02-12T12:53:47.637Z,6.7
2023-02-12T12:55:03.863Z,5.8
2023-02-12T12:56:20.112Z,6.2
2023-02-12T12:57:36.405Z,6.3
2023-02-12T12:58:51.597Z,6.3
2023-02-12T13:00:07.895Z,5.9
2023-02-12T13:01:24.089Z,6
2023-02-12T13:02:40.374Z,6.4
2023-02-12T13:03:56.574Z,7.1
2023-02-12T13:05:12.861Z,6.6
2023-02-12T13:06:29.046Z,5.7
2023-02-12T13:07:45.332Z,6.4
2023-02-12T13:09:01.579Z,5.9
2023-02-12T13:10:17.766Z,6.5
2023-02-12T13:11:33.993Z,7
2023-02-12T13:12:50.294Z,6.8
2023-02-12T13:14:06.532Z,6.2
2023-02-12T13:15:21.734Z,6.9
2023-02-12T13:16:37.985Z,6
2023-02-12T13:17:54.267Z,6.7
2023-02-12T13:19:10.454Z,6.9
2023-02-12T13:20:26.754Z,7.2
2023-02-12T13:21:42.936Z,6.6
2023-02-12T13:22:59.165Z,6.7
2023-02-12T13:24:15.416Z,8
2023-02-12T13:25:31.645Z,6.3
2023-02-12T13:26:47.901Z,6.3
2023-02-12T13:28:04.181Z,7.2
2023-02-12T13:29:20.429Z,7.5
2023-02-12T13:30:36.613Z,7.6
2023-02-12T13:31:51.860Z,8.4
2023-02-12T13:33:08.104Z,7.7
2023-02-12T13:34:24.343Z,7.3
2023-02-12T13:35:40.641Z,7.5
2023-02-12T13:36:56.817Z,7.7
2023-02-12T13:38:13.119Z,7.4
2023-02-12T13:39:29.312Z,7.4
2023-02-12T13:40:45.538Z,7.5
2023-02-12T13:42:01.778Z,7.7
2023-02-12T13:43:18.014Z,8.6
2023-02-12T13:44:34.267Z,8
2023-02-12T13:45:50.556Z,9.4
2023-02-12T13:47:06.739Z,9
2023-02-12T13:48:21.989Z,9.5
2023-02-12T13:49:38.246Z,9.9
2023-02-12T13:50:54.531Z,11.2
2023-02-12T13:52:10.782Z,10.4
2023-02-12T13:53:26.967Z,11.3
2023-02-12T13:54:43.194Z,9.9
2023-02-12T13:55:59.430Z,11.6
2023-02-12T13:57:15.685Z,11.1
2023-02-12T13:58:31.967Z,11.2
2023-02-12T13:59:48.157Z,11.5
2023-02-12T14:01:04.445Z,11.8
2023-02-12T14:02:20.636Z,12
2023-02-12T14:03:36.865Z,13.2
2023-02-12T14:04:52.137Z,12.5
2023-02-12T14:06:08.376Z,12.5
2023-02-12T14:07:24.606Z,12.9
2023-02-12T14:08:40.857Z,13.6
2023-02-12T14:09:57.141Z,13.2
2023-02-12T14:11:13.320Z,12.7
2023-02-12T14:12:29.574Z,12.8
2023-02-12T14:13:45.857Z,12.2
2023-02-12T14:15:02.051Z,14.1
2023-02-12T14:16:18.289Z,12.7
2023-02-12T14:17:34.522Z,14.8
2023-02-12T14:18:50.772Z,13.9
2023-02-12T14:20:06.998Z,15.2
2023-02-12T14:21:22.309Z,15.2
2023-02-12T14:22:38.550Z,15.8
2023-02-12T14:23:54.789Z,15.9
2023-02-12T14:25:10.971Z,14.2
2023-02-12T14:26:27.213Z,14.8
2023-02-12T14:27:43.464Z,13.2
2023-02-12T14:28:59.755Z,13.6
2023-02-12T14:30:15.930Z,14.1
2023-02-12T14:31:32.228Z,13.3
2023-02-12T14:32:48.421Z,13.9
2023-02-12T14:34:04.648Z,14
2023-02-12T14:35:20.897Z,14.6
2023-02-12T14:36:37.192Z,14.1
2023-02-12T14:37:52.399Z,13.8
2023-02-12T14:39:08.632Z,13.5
2023-02-12T14:40:24.873Z,13.7
2023-02-12T14:41:41.115Z,13.7
2023-02-12T14:42:57.361Z,14.8
2023-02-12T14:44:12.610Z,14.9
2023-02-12T14:45:28.842Z,14.1
2023-02-12T14:46:45.091Z,14.1
2023-02-12T14:48:01.330Z,12.5
2023-02-12T14:49:17.629Z,14.4
2023-02-12T14:50:33.817Z,14.1
2023-02-12T14:51:50.046Z,13.7
2023-02-12T14:53:06.349Z,13.7
2023-02-12T14:54:22.588Z,13.8
2023-02-12T14:55:38.764Z,14.1
2023-02-12T14:56:55.061Z,14.3
2023-02-12T14:58:11.250Z,13.5
2023-02-12T14:59:27.550Z,15.4
2023-02-12T15:00:42.797Z,14.7
2023-02-12T15:01:58.991Z,16.3
2023-02-12T15:03:15.228Z,14.8
2023-02-12T15:04:31.518Z,14.2
2023-02-12T15:05:47.709Z,15.3
2023-02-12T15:07:03.993Z,15.7
2023-02-12T15:08:20.182Z,15.1
2023-02-12T15:09:36.419Z,15.1
2023-02-12T15:10:52.660Z,14.3
2023-02-12T15:12:08.954Z,15.1
2023-02-12T15:13:25.138Z,15.2
2023-02-12T15:14:41.376Z,15.4
2023-02-12T15:15:57.615Z,16
2023-02-12T15:17:13.853Z,15.1
2023-02-12T15:18:29.120Z,15.5
2023-02-12T15:19:45.415Z,15.1
2023-02-12T15:21:01.594Z,15.3
2023-02-12T15:22:17.823Z,15.2
2023-02-12T15:23:34.082Z,14.8
2023-02-12T15:24:50.310Z,14.5
2023-02-12T15:26:06.553Z,14.8
2023-02-12T15:27:22.785Z,14.7
2023-02-12T15:28:39.038Z,14.7
2023-02-12T15:29:55.265Z,14.4
2023-02-12T15:31:11.576Z,14.8
2023-02-12T15:32:27.801Z,14.8
2023-02-12T15:33:43.989Z,14.2
2023-02-12T15:34:59.310Z,15.2
2023-02-12T15:36:15.480Z,14.4
2023-02-12T15:37:31.718Z,14.4
2023-02-12T15:38:47.955Z,14.8
2023-02-12T15:40:04.260Z,15.4
2023-02-12T15:41:20.438Z,13.9
2023-02-12T15:42:36.688Z,13.7
2023-02-12T15:43:52.929Z,13.6
2023-02-12T15:45:09.168Z,15
2023-02-12T15:46:25.394Z,15.1
2023-02-12T15:47:41.633Z,13.3
2023-02-12T15:48:57.874Z,13.9
2023-02-12T15:50:14.119Z,13.1
2023-02-12T15:51:29.386Z,13.8
2023-02-12T15:52:45.668Z,15.7
2023-02-12T15:54:01.911Z,14.3
2023-02-12T15:55:18.092Z,14.3
2023-02-12T15:56:34.348Z,14.2
2023-02-12T15:57:50.630Z,13.8
2023-02-12T15:59:06.826Z,13.1
2023-02-12T16:00:23.057Z,14.2
2023-02-12T16:01:39.295Z,13.6
2023-02-12T16:02:55.596Z,13.9
2023-02-12T16:04:11.778Z,13.7
2023-02-12T16:05:28.065Z,13
2023-02-12T16:06:44.257Z,14.3
2023-02-12T16:07:59.564Z,13.4
2023-02-12T16:09:15.742Z,13.5
2023-02-12T16:10:32.053Z,14.4
2023-02-12T16:11:48.223Z,14.1
2023-02-12T16:13:04.518Z,14.6
2023-02-12T16:14:20.703Z,13.8
2023-02-12T16:15:36.939Z,17.1
2023-02-12T16:16:53.179Z,22.2
2023-02-12T16:18:09.420Z,20.3
2023-02-12T16:19:25.658Z,24.7
2023-02-12T16:20:41.900Z,18
2023-02-12T16:21:58.148Z,14.8
2023-02-12T16:23:14.380Z,13.3
2023-02-12T16:24:29.700Z,13.5
2023-02-12T16:25:45.876Z,14.3
2023-02-12T16:27:02.122Z,13.8
2023-02-12T16:28:18.350Z,14.2
2023-02-12T16:29:34.604Z,16.3
2023-02-12T16:30:50.835Z,16.3
2023-02-12T16:32:07.070Z,15.7
2023-02-12T16:33:23.373Z,13.4
2023-02-12T16:34:39.569Z,14.8
2023-02-12T16:35:55.859Z,13.5
2023-02-12T16:37:12.040Z,16.4
2023-02-12T16:38:28.387Z,16.7
2023-02-12T16:39:44.628Z,16.8
2023-02-12T16:40:59.942Z,15
2023-02-12T16:42:16.178Z,16.4
2023-02-12T16:43:32.464Z,16.2
2023-02-12T16:44:48.701Z,17.6
2023-02-12T16:46:05.057Z,17.2
2023-02-12T16:47:21.306Z,17
2023-02-12T16:48:37.610Z,18.3
2023-02-12T16:49:53.779Z,16.4
2023-02-12T16:51:10.082Z,20.2
2023-02-12T16:52:26.316Z,19.6
2023-02-12T16:53:42.662Z,19.8
2023-02-12T16:54:58.917Z,17.9
2023-02-12T16:56:15.210Z,18.7
2023-02-12T16:57:30.502Z,17.3
2023-02-12T16:58:46.798Z,19.1
2023-02-12T17:00:03.097Z,17.7
2023-02-12T17:01:19.455Z,17.2
2023-02-12T17:02:35.742Z,18.3
2023-02-12T17:03:52.030Z,18
2023-02-12T17:05:08.268Z,19